createdAt,value
2023-04-09T00:00:38.343Z,102006.19
2023-04-09T00:03:06.683Z,102013.47
2023-04-09T00:05:40.105Z,101995.38
2023-04-09T00:08:08.190Z,102007.19
2023-04-09T00:10:36.136Z,102003.63
2023-04-09T00:13:04.368Z,102013.66
2023-04-09T00:15:32.377Z,102011.78
2023-04-09T00:18:00.410Z,101985.06
2023-04-09T00:20:28.374Z,102005.31
2023-04-09T00:22:58.261Z,101990.63
2023-04-09T00:25:26.147Z,102000.25
2023-04-09T00:27:54.050Z,101999.91
2023-04-09T00:30:22.096Z,101998.88
2023-04-09T00:32:50.077Z,101993.63
2023-04-09T00:35:18.306Z,101991.91
2023-04-09T00:37:46.364Z,101998.19
2023-04-09T00:40:15.864Z,101995.66
2023-04-09T00:42:44.046Z,101996.34
2023-04-09T00:45:12.353Z,101992.59
2023-04-09T00:47:40.408Z,101998.88
2023-04-09T00:50:09.258Z,101991.91
2023-04-09T00:52:37.149Z,101991.75
2023-04-09T00:55:05.913Z,101995.31
2023-04-09T00:57:35.813Z,101994.47
2023-04-09T01:00:04.523Z,101990.06
2023-04-09T01:02:32.543Z,101995.03
2023-04-09T01:05:00.517Z,101936.31
2023-04-09T01:07:33.137Z,101977.28
2023-04-09T01:10:02.949Z,101999.59
2023-04-09T01:12:37.175Z,101998.38
2023-04-09T01:15:09.242Z,101990.22
2023-04-09T01:17:40.100Z,101975.63
2023-04-09T01:20:10.625Z,101976.00
2023-04-09T01:22:46.030Z,101980.03
2023-04-09T01:25:21.005Z,101979.19
2023-04-09T01:27:56.425Z,101989.19
2023-04-09T01:30:25.792Z,101986.66
2023-04-09T01:32:54.064Z,101939.78
2023-04-09T01:35:21.999Z,101970.78
2023-04-09T01:37:49.925Z,101988.91
2023-04-09T01:40:18.032Z,101977.09
2023-04-09T01:42:46.233Z,101990.63
2023-04-09T01:45:14.099Z,101993.50
2023-04-09T01:47:43.397Z,101988.91
2023-04-09T01:50:11.862Z,101986.19
2023-04-09T01:52:40.030Z,101985.34
2023-04-09T01:55:09.100Z,101986.38
2023-04-09T01:57:37.002Z,101980.09
2023-04-09T02:00:08.589Z,101989.09
2023-04-09T02:02:38.379Z,101985.34
2023-04-09T02:05:09.432Z,101985.34
2023-04-09T02:07:39.843Z,101989.75
2023-04-09T02:10:09.637Z,101970.47
2023-04-09T02:12:37.880Z,101989.59
2023-04-09T02:15:08.898Z,101973.84
2023-04-09T02:17:36.900Z,101983.31
2023-04-09T02:20:05.283Z,101940.72
2023-04-09T02:22:34.644Z,101981.63
2023-04-09T02:25:02.822Z,101971.31
2023-04-09T02:27:30.873Z,101970.09
2023-04-09T02:29:58.857Z,101954.88
2023-04-09T02:32:26.927Z,101967.38
2023-04-09T02:34:55.117Z,101976.38
2023-04-09T02:37:23.104Z,101965.72
2023-04-09T02:39:52.400Z,101963.81
2023-04-09T02:42:20.384Z,101958.19
2023-04-09T02:44:48.589Z,101954.34
2023-04-09T02:47:16.476Z,101952.66
2023-04-09T02:49:44.405Z,101949.44
2023-04-09T02:52:12.304Z,101951.28
2023-04-09T02:54:40.488Z,101931.84
2023-04-09T02:57:09.747Z,101947.72
2023-04-09T02:59:39.076Z,101954.00
2023-04-09T03:02:07.083Z,101945.84
2023-04-09T03:04:35.339Z,101944.50
2023-04-09T03:07:03.253Z,101947.91
2023-04-09T03:09:31.626Z,101952.31
2023-04-09T03:11:59.538Z,101939.91
2023-04-09T03:14:29.133Z,101941.63
2023-04-09T03:16:57.025Z,101940.59
2023-04-09T03:19:24.999Z,101947.72
2023-04-09T03:21:52.873Z,101943.31
2023-04-09T03:24:21.121Z,101938.53
2023-04-09T03:26:49.002Z,101950.22
2023-04-09T03:29:17.111Z,101944.78
2023-04-09T03:31:46.391Z,101930.41
2023-04-09T03:34:14.749Z,101927.72
2023-04-09T03:36:42.716Z,101935.63
2023-04-09T03:39:10.578Z,101769.69
2023-04-09T03:41:38.501Z,101927.00
2023-04-09T03:44:06.844Z,101933.56
2023-04-09T03:46:34.772Z,101911.25
2023-04-09T03:49:04.080Z,101925.41
2023-04-09T03:51:32.107Z,101928.78
2023-04-09T03:54:00.284Z,101933.38
2023-04-09T03:56:28.267Z,101928.97
2023-04-09T03:58:56.195Z,101934.41
2023-04-09T04:01:24.111Z,101893.53
2023-04-09T04:03:52.425Z,101931.69
2023-04-09T04:06:21.808Z,101928.97
2023-04-09T04:08:49.832Z,101926.44
2023-04-09T04:11:17.847Z,101933.56
2023-04-09T04:13:46.089Z,101924.13
2023-04-09T04:16:14.010Z,101932.28
2023-04-09T04:18:42.026Z,101934.41
2023-04-09T04:21:14.259Z,101930.84
2023-04-09T04:23:43.645Z,101924.56
2023-04-09T04:26:11.600Z,101924.13
2023-04-09T04:28:39.696Z,101927.28
2023-04-09T04:31:09.700Z,101920.84
2023-04-09T04:33:38.007Z,101923.72
2023-04-09T04:36:07.563Z,101927.28
2023-04-09T04:38:35.572Z,101924.56
2023-04-09T04:41:04.887Z,101936.28
2023-04-09T04:43:33.253Z,101923.28
2023-04-09T04:46:01.210Z,101936.09
2023-04-09T04:48:30.887Z,101932.34
2023-04-09T04:50:58.983Z,101935.91
2023-04-09T04:53:27.205Z,101933.19
2023-04-09T04:55:55.089Z,101938.63
2023-04-09T04:58:24.415Z,101926.06
2023-04-09T05:00:52.315Z,101936.09
2023-04-09T05:03:20.557Z,101934.22
2023-04-09T05:05:48.476Z,101932.34
2023-04-09T05:08:16.411Z,101936.94
2023-04-09T05:10:45.385Z,101945.91
2023-04-09T05:13:13.610Z,101943.41
2023-04-09T05:15:42.976Z,101940.69
2023-04-09T05:18:10.865Z,101943.41
2023-04-09T05:20:40.070Z,101944.25
2023-04-09T05:23:10.238Z,101946.13
2023-04-09T05:25:38.247Z,101946.13
2023-04-09T05:28:06.382Z,101922.41
2023-04-09T05:30:34.485Z,101920.53
2023-04-09T05:33:04.143Z,101953.44
2023-04-09T05:35:32.149Z,101957.00
2023-04-09T05:38:00.444Z,101952.41
2023-04-09T05:40:28.334Z,101950.72
2023-04-09T05:42:56.519Z,101951.56
2023-04-09T05:45:24.402Z,101953.22
2023-04-09T05:47:52.343Z,101952.19
2023-04-09T05:50:21.665Z,101944.03
2023-04-09T05:52:49.898Z,101936.84
2023-04-09T05:55:17.854Z,101946.13
2023-04-09T05:57:46.081Z,101955.75
2023-04-09T06:00:15.203Z,101952.19
2023-04-09T06:02:43.554Z,101950.31
2023-04-09T06:05:11.550Z,101945.06
2023-04-09T06:07:40.837Z,101950.50
2023-04-09T06:10:09.885Z,101947.78
2023-04-09T06:12:37.862Z,101941.53
2023-04-09T06:15:08.937Z,101945.91
2023-04-09T06:17:36.860Z,101945.91
2023-04-09T06:20:05.355Z,101946.97
2023-04-09T06:22:33.323Z,101945.06
2023-04-09T06:25:02.849Z,101955.13
2023-04-09T06:27:30.840Z,101949.69
2023-04-09T06:29:58.762Z,101942.75
2023-04-09T06:32:26.822Z,101922.84
2023-04-09T06:34:55.057Z,101943.75
2023-04-09T06:37:22.936Z,101956.78
2023-04-09T06:40:00.312Z,101931.94
2023-04-09T06:42:30.061Z,101958.47
2023-04-09T06:44:58.276Z,101946.03
2023-04-09T06:47:26.440Z,101942.63
2023-04-09T06:49:54.367Z,101960.34
2023-04-09T06:52:22.299Z,101970.19
2023-04-09T06:54:50.474Z,101963.72
2023-04-09T06:57:18.457Z,101959.72
2023-04-09T06:59:47.693Z,101963.72
2023-04-09T07:02:15.739Z,101971.03
2023-04-09T07:04:44.104Z,101965.59
2023-04-09T07:07:12.721Z,101980.03
2023-04-09T07:09:40.636Z,101971.03
2023-04-09T07:12:08.578Z,101969.16
2023-04-09T07:14:37.312Z,101975.63
2023-04-09T07:17:06.670Z,101976.47
2023-04-09T07:19:34.589Z,101981.06
2023-04-09T07:22:02.436Z,101981.06
2023-04-09T07:24:31.205Z,101974.78
2023-04-09T07:26:59.095Z,101986.50
2023-04-09T07:29:27.365Z,101992.75
2023-04-09T07:31:55.412Z,101992.75
2023-04-09T07:34:25.925Z,101986.50
2023-04-09T07:36:53.865Z,101979.19
2023-04-09T07:39:22.328Z,101985.66
2023-04-09T07:41:50.682Z,101991.06
2023-04-09T07:44:18.827Z,101975.22
2023-04-09T07:46:46.726Z,101987.50
2023-04-09T07:49:14.715Z,101977.50
2023-04-09T07:51:44.167Z,101985.66
2023-04-09T07:54:12.345Z,101985.00
2023-04-09T07:56:40.555Z,101961.53
2023-04-09T07:59:08.551Z,101992.75
2023-04-09T08:01:36.528Z,101991.75
2023-04-09T08:04:05.027Z,101997.19
2023-04-09T08:06:33.084Z,101996.34
2023-04-09T08:09:02.396Z,101994.47
2023-04-09T08:11:30.366Z,101990.91
2023-04-09T08:13:58.509Z,101996.34
2023-04-09T08:16:26.659Z,101991.75
2023-04-09T08:18:54.977Z,101996.34
2023-04-09T08:21:23.271Z,101992.59
2023-04-09T08:23:51.511Z,101992.59
2023-04-09T08:26:20.893Z,101990.91
2023-04-09T08:28:48.995Z,101975.91
2023-04-09T08:31:16.983Z,101994.47
2023-04-09T08:33:45.200Z,101998.03
2023-04-09T08:36:13.070Z,101990.91
2023-04-09T08:38:42.003Z,101989.03
2023-04-09T08:41:09.895Z,101967.78
2023-04-09T08:43:56.306Z,102002.41
2023-04-09T08:46:26.155Z,101954.88
2023-04-09T08:48:54.485Z,102002.59
2023-04-09T08:51:23.403Z,101995.31
2023-04-09T08:53:57.558Z,101993.44
2023-04-09T08:56:26.210Z,101996.97
2023-04-09T08:58:56.089Z,102002.41
2023-04-09T09:01:24.866Z,101981.78
2023-04-09T09:03:57.918Z,101994.25
2023-04-09T09:06:26.302Z,101977.66
2023-04-09T09:09:07.745Z,101997.81
2023-04-09T09:11:36.172Z,101982.06
2023-04-09T09:14:07.131Z,101984.22
2023-04-09T09:16:35.949Z,101982.38
2023-04-09T09:19:03.938Z,101985.94
2023-04-09T09:21:31.870Z,101975.63
2023-04-09T09:24:00.174Z,101975.06
2023-04-09T09:26:28.848Z,101976.94
2023-04-09T09:28:58.890Z,101942.16
2023-04-09T09:31:28.328Z,101968.78
2023-04-09T09:33:56.749Z,101971.50
2023-04-09T09:36:34.129Z,101969.63
2023-04-09T09:39:03.993Z,101968.59
2023-04-09T09:41:32.018Z,101927.44
2023-04-09T09:44:00.556Z,101962.31
2023-04-09T09:46:29.894Z,101957.91
2023-04-09T09:48:57.750Z,101953.31
2023-04-09T09:51:27.842Z,101964.19
2023-04-09T09:53:56.516Z,101903.28
2023-04-09T09:56:26.476Z,101946.19
2023-04-09T09:58:56.355Z,101951.44
2023-04-09T10:01:24.307Z,101936.19
2023-04-09T10:03:54.089Z,101947.88
2023-04-09T10:06:22.114Z,101939.75
2023-04-09T10:08:50.272Z,101927.97
2023-04-09T10:11:18.557Z,101941.44
2023-04-09T10:13:50.327Z,101933.66
2023-04-09T10:16:18.748Z,101925.13
2023-04-09T10:18:47.184Z,101929.72
2023-04-09T10:21:21.997Z,101936.00
2023-04-09T10:23:50.860Z,101925.97
2023-04-09T10:26:19.548Z,101926.16
2023-04-09T10:28:47.646Z,101897.47
2023-04-09T10:31:15.660Z,101895.63
2023-04-09T10:33:43.690Z,101888.41
2023-04-09T10:36:12.230Z,101928.69
2023-04-09T10:38:42.735Z,101923.25
2023-04-09T10:41:17.840Z,101920.72
2023-04-09T10:43:47.578Z,101920.53
2023-04-09T10:46:28.239Z,101860.19
2023-04-09T10:49:12.402Z,101919.69
2023-04-09T10:51:40.656Z,101916.13
2023-04-09T10:54:35.680Z,101916.13
2023-04-09T10:57:27.780Z,101920.53
2023-04-09T10:59:55.954Z,101913.41
2023-04-09T11:02:56.145Z,101921.56
2023-04-09T11:05:27.794Z,101909.84
2023-04-09T11:07:58.032Z,101905.28
2023-04-09T11:10:28.401Z,101894.97
2023-04-09T11:12:56.592Z,101891.41
2023-04-09T11:15:24.707Z,101895.44
2023-04-09T11:17:52.790Z,101899.84
2023-04-09T11:20:21.890Z,101896.28
2023-04-09T11:22:50.807Z,101892.25
2023-04-09T11:25:22.288Z,101890.66
2023-04-09T11:27:51.678Z,101882.69
2023-04-09T11:30:19.795Z,101881.00
2023-04-09T11:32:48.078Z,101881.47
2023-04-09T11:35:16.451Z,101881.47
2023-04-09T11:37:45.186Z,101757.63
2023-04-09T11:40:19.366Z,101870.97
2023-04-09T11:42:51.794Z,101880.63
2023-04-09T11:45:20.183Z,101878.75
2023-04-09T11:47:48.412Z,101875.19
2023-04-09T11:50:16.673Z,101873.34
2023-04-09T11:52:46.274Z,101864.63
2023-04-09T11:55:14.665Z,101870.97
2023-04-09T11:57:44.077Z,101865.75
2023-04-09T12:00:14.691Z,101820.88
2023-04-09T12:02:43.625Z,101874.19
2023-04-09T12:05:14.049Z,101867.91
2023-04-09T12:07:46.243Z,101878.75
2023-04-09T12:10:19.753Z,101877.75
2023-04-09T12:12:49.027Z,101874.19
2023-04-09T12:15:22.239Z,101876.06
2023-04-09T12:17:51.427Z,101864.69
2023-04-09T12:20:32.795Z,101874.19
2023-04-09T12:23:02.857Z,101864.34
2023-04-09T12:25:31.165Z,101862.47
2023-04-09T12:27:59.521Z,101865.19
2023-04-09T12:30:28.865Z,101751.06
2023-04-09T12:32:57.157Z,101860.59
2023-04-09T12:35:25.067Z,101860.59
2023-04-09T12:37:56.195Z,101854.31
2023-04-09T12:40:24.084Z,101854.09
2023-04-09T12:42:52.264Z,101857.66
2023-04-09T12:45:20.928Z,101854.09
2023-04-09T12:47:50.308Z,101855.16
2023-04-09T12:50:18.231Z,101851.38
2023-04-09T12:52:46.748Z,101848.41
2023-04-09T12:55:14.798Z,101858.50
2023-04-09T12:57:44.052Z,101851.38
2023-04-09T13:00:13.074Z,101847.56
2023-04-09T13:02:41.584Z,101781.66
2023-04-09T13:05:11.326Z,101853.28
2023-04-09T13:07:41.427Z,101814.91
2023-04-09T13:10:11.157Z,101847.84
2023-04-09T13:12:39.098Z,101817.69
2023-04-09T13:15:11.813Z,101850.56
2023-04-09T13:17:39.718Z,101838.66
2023-04-09T13:20:10.618Z,101839.72
2023-04-09T13:22:38.858Z,101845.13
2023-04-09T13:25:07.154Z,101845.94
2023-04-09T13:27:35.138Z,101853.06
2023-04-09T13:30:03.927Z,101828.47
2023-04-09T13:32:32.163Z,101840.34
2023-04-09T13:35:00.444Z,101835.31
2023-04-09T13:37:29.751Z,101835.94
2023-04-09T13:39:57.667Z,101842.22
2023-04-09T13:42:25.817Z,101838.66
2023-04-09T13:44:54.033Z,101740.13
2023-04-09T13:47:23.877Z,101831.34
2023-04-09T13:49:53.038Z,101833.03
2023-04-09T13:52:20.991Z,101826.31
2023-04-09T13:54:50.639Z,101820.88
2023-04-09T13:57:18.533Z,101825.72
2023-04-09T13:59:46.470Z,101826.56
2023-04-09T14:02:14.571Z,101789.16
2023-04-09T14:04:42.633Z,101786.09
2023-04-09T14:07:10.645Z,101819.84
2023-04-09T14:09:38.616Z,101807.28
2023-04-09T14:12:07.973Z,101814.00
2023-04-09T14:14:36.231Z,101813.16
2023-04-09T14:17:04.177Z,101808.59
2023-04-09T14:19:32.103Z,101808.59
2023-04-09T14:22:00.003Z,101796.88
2023-04-09T14:24:28.166Z,101780.47
2023-04-09T14:26:56.823Z,101788.72
2023-04-09T14:29:26.175Z,101779.72
2023-04-09T14:31:55.987Z,101769.69
2023-04-09T14:34:25.438Z,101780.75
2023-04-09T14:36:53.397Z,101782.25
2023-04-09T14:39:21.771Z,101764.97
2023-04-09T14:41:49.691Z,101784.13
2023-04-09T14:44:17.924Z,101790.41
2023-04-09T14:46:47.250Z,101785.16
2023-04-09T14:49:15.402Z,101793.97
2023-04-09T14:51:43.292Z,101786.00
2023-04-09T14:54:11.477Z,101786.00
2023-04-09T14:56:39.396Z,101784.97
2023-04-09T14:59:07.347Z,101782.25
2023-04-09T15:01:35.441Z,101783.09
2023-04-09T15:04:05.114Z,101776.81
2023-04-09T15:06:33.425Z,101771.38
2023-04-09T15:09:01.568Z,101774.09
2023-04-09T15:11:29.482Z,101771.38
2023-04-09T15:13:57.980Z,101764.09
2023-04-09T15:16:27.135Z,101763.25
2023-04-09T15:18:56.220Z,101771.38
2023-04-09T15:21:26.110Z,101771.38
2023-04-09T15:23:54.993Z,101766.13
2023-04-09T15:26:22.926Z,101746.34
2023-04-09T15:28:51.389Z,101770.53
2023-04-09T15:31:19.538Z,101775.97
2023-04-09T15:33:48.244Z,101779.53
2023-04-09T15:36:16.413Z,101775.97
2023-04-09T15:38:45.800Z,101768.69
2023-04-09T15:41:13.725Z,101776.81
2023-04-09T15:43:41.923Z,101770.72
2023-04-09T15:46:10.782Z,101770.72
2023-04-09T15:48:38.821Z,101764.28
2023-04-09T15:51:07.272Z,101756.50
2023-04-09T15:53:35.557Z,101729.78
2023-04-09T15:56:05.617Z,101766.97
2023-04-09T15:58:33.569Z,101766.13
2023-04-09T16:01:01.861Z,101765.97
2023-04-09T16:03:35.362Z,101771.56
2023-04-09T16:06:07.375Z,101771.38
2023-04-09T16:08:35.777Z,101771.38
2023-04-09T16:11:05.626Z,101768.69
2023-04-09T16:13:33.902Z,101765.28
2023-04-09T16:16:01.884Z,101753.97
2023-04-09T16:18:29.830Z,101767.81
2023-04-09T16:20:58.075Z,101728.25
2023-04-09T16:23:27.073Z,101756.78
2023-04-09T16:25:55.016Z,101755.94
2023-04-09T16:28:24.281Z,101740.00
2023-04-09T16:30:52.178Z,101752.38
2023-04-09T16:33:20.355Z,101742.94
2023-04-09T16:35:48.287Z,101748.81
2023-04-09T16:38:16.269Z,101738.34
2023-04-09T16:40:44.562Z,101746.94
2023-04-09T16:43:12.786Z,101740.66
2023-04-09T16:45:42.162Z,101736.06
2023-04-09T16:48:12.468Z,101731.66
2023-04-09T16:50:40.733Z,101731.66
2023-04-09T16:53:08.937Z,101716.97
2023-04-09T16:55:36.970Z,101724.34
2023-04-09T16:58:04.909Z,101717.25
2023-04-09T17:00:32.935Z,101713.50
2023-04-09T17:03:02.633Z,101701.34
2023-04-09T17:05:31.161Z,101714.34
2023-04-09T17:07:59.061Z,101708.06
2023-04-09T17:10:27.115Z,101706.19
2023-04-09T17:12:55.630Z,101713.50
2023-04-09T17:15:25.103Z,101716.22
2023-04-09T17:17:53.759Z,101708.47
2023-04-09T17:20:24.914Z,101713.50
2023-04-09T17:22:53.102Z,101723.50
2023-04-09T17:25:21.578Z,101727.06
2023-04-09T17:27:49.476Z,101720.78
2023-04-09T17:30:17.389Z,101725.38
2023-04-09T17:32:45.505Z,101726.22
2023-04-09T17:35:13.476Z,101730.63
2023-04-09T17:37:42.782Z,101696.34
2023-04-09T17:40:12.457Z,101731.66
2023-04-09T17:42:40.910Z,101721.19
2023-04-09T17:45:12.308Z,101708.13
2023-04-09T17:47:40.734Z,101730.81
2023-04-09T17:50:09.829Z,101736.47
2023-04-09T17:52:38.722Z,101733.53
2023-04-09T17:55:09.006Z,101732.69
2023-04-09T17:57:36.925Z,101728.09
2023-04-09T18:00:05.495Z,101732.69
2023-04-09T18:02:33.647Z,101728.31
2023-04-09T18:05:02.572Z,101734.56
2023-04-09T18:07:33.247Z,101731.03
2023-04-09T18:10:01.299Z,101737.28
2023-04-09T18:12:30.804Z,101736.47
2023-04-09T18:14:59.029Z,101708.69
2023-04-09T18:17:27.463Z,101738.13
2023-04-09T18:19:58.625Z,101733.75
2023-04-09T18:22:26.987Z,101734.56
2023-04-09T18:24:55.247Z,101700.06
2023-04-09T18:27:23.232Z,101728.31
2023-04-09T18:29:52.553Z,101740.00
2023-04-09T18:32:20.488Z,101733.75
2023-04-09T18:34:48.807Z,101745.44
2023-04-09T18:37:17.266Z,101742.72
2023-04-09T18:39:45.165Z,101746.28
2023-04-09T18:42:13.080Z,101745.44
2023-04-09T18:44:41.420Z,101741.91
2023-04-09T18:47:12.371Z,101742.94
2023-04-09T18:49:40.420Z,101747.34
2023-04-09T18:52:09.355Z,101747.34
2023-04-09T18:54:38.774Z,101744.31
2023-04-09T18:57:07.096Z,101749.22
2023-04-09T18:59:35.357Z,101700.84
2023-04-09T19:02:05.105Z,101744.63
2023-04-09T19:04:36.503Z,101748.38
2023-04-09T19:07:04.604Z,101721.81
2023-04-09T19:09:33.044Z,101744.97
2023-04-09T19:12:01.579Z,101745.66
2023-04-09T19:14:29.890Z,101742.84
2023-04-09T19:16:58.711Z,101753.78
2023-04-09T19:19:28.268Z,101751.94
2023-04-09T19:21:57.769Z,101756.50
2023-04-09T19:24:26.451Z,101752.94
2023-04-09T19:26:56.621Z,101751.09
2023-04-09T19:29:24.627Z,101743.50
2023-04-09T19:31:52.609Z,101744.53
2023-04-09T19:34:20.923Z,101747.25
2023-04-09T19:36:48.837Z,101750.25
2023-04-09T19:39:18.859Z,101754.81
2023-04-09T19:41:46.766Z,101753.97
2023-04-09T19:44:14.969Z,101750.41
2023-04-09T19:46:42.947Z,101748.94
2023-04-09T19:49:10.872Z,101748.69
2023-04-09T19:51:38.813Z,101759.22
2023-04-09T19:54:06.824Z,101767.38
2023-04-09T19:56:36.748Z,101759.41
2023-04-09T19:59:04.724Z,101761.09
2023-04-09T20:01:32.779Z,101770.09
2023-04-09T20:04:01.232Z,101725.91
2023-04-09T20:06:30.712Z,101758.38
2023-04-09T20:08:58.659Z,101761.09
2023-04-09T20:11:26.586Z,101756.50
2023-04-09T20:13:57.373Z,101753.97
2023-04-09T20:16:25.390Z,101757.72
2023-04-09T20:18:53.564Z,101754.81
2023-04-09T20:21:21.643Z,101751.09
2023-04-09T20:23:50.067Z,101747.03
2023-04-09T20:26:18.068Z,101753.59
2023-04-09T20:28:46.013Z,101751.09
2023-04-09T20:31:15.253Z,101756.69
2023-04-09T20:33:43.511Z,101751.25
2023-04-09T20:36:17.841Z,101748.56
2023-04-09T20:38:45.881Z,101746.84
2023-04-09T20:41:13.735Z,101746.84
2023-04-09T20:43:41.656Z,101744.16
2023-04-09T20:46:09.740Z,101723.66
2023-04-09T20:48:39.133Z,101745.84
2023-04-09T20:51:09.785Z,101726.72
2023-04-09T20:53:38.000Z,101742.28
2023-04-09T20:56:07.268Z,101739.56
2023-04-09T20:58:35.197Z,101742.28
2023-04-09T21:01:05.053Z,101738.72
2023-04-09T21:03:34.602Z,101733.28
2023-04-09T21:06:04.749Z,101740.41
2023-04-09T21:08:32.690Z,101734.97
2023-04-09T21:11:00.746Z,101729.53
2023-04-09T21:13:28.975Z,101725.97
2023-04-09T21:15:58.127Z,101702.31
2023-04-09T21:18:26.053Z,101720.72
2023-04-09T21:20:54.004Z,101684.91
2023-04-09T21:23:23.609Z,101727.84
2023-04-09T21:25:51.599Z,101724.28
2023-04-09T21:28:19.540Z,101722.59
2023-04-09T21:30:47.685Z,101723.00
2023-04-09T21:33:15.944Z,101710.06
2023-04-09T21:35:43.992Z,101734.31
2023-04-09T21:38:11.909Z,101734.31
2023-04-09T21:40:41.209Z,101731.59
2023-04-09T21:43:09.486Z,101732.44
2023-04-09T21:45:37.590Z,101725.31
2023-04-09T21:48:05.548Z,101728.88
2023-04-09T21:50:33.474Z,101734.13
2023-04-09T21:53:03.057Z,101730.38
2023-04-09T21:55:31.034Z,101735.81
2023-04-09T21:58:00.367Z,101722.41
2023-04-09T22:00:29.350Z,101722.22
2023-04-09T22:03:01.247Z,101704.16
2023-04-09T22:05:29.373Z,101684.44
2023-04-09T22:07:57.354Z,101709.22
2023-04-09T22:10:25.284Z,101713.41
2023-04-09T22:12:53.480Z,101703.91
2023-04-09T22:15:22.792Z,101713.63
2023-04-09T22:17:50.682Z,101720.53
2023-04-09T22:20:18.610Z,101729.72
2023-04-09T22:22:48.240Z,101729.94
2023-04-09T22:25:16.575Z,101729.94
2023-04-09T22:27:44.613Z,101725.00
2023-04-09T22:30:12.757Z,101745.38
2023-04-09T22:32:42.507Z,101747.44
2023-04-09T22:35:12.084Z,101713.94
2023-04-09T22:37:40.061Z,101753.72
2023-04-09T22:40:14.353Z,101623.28
2023-04-09T22:42:42.931Z,101735.19
2023-04-09T22:45:11.711Z,101760.84
2023-04-09T22:47:39.676Z,101758.31
2023-04-09T22:50:11.080Z,101754.75
2023-04-09T22:52:39.329Z,101753.91
2023-04-09T22:55:09.988Z,101755.59
2023-04-09T22:57:38.393Z,101742.66
2023-04-09T23:00:09.890Z,101762.06
2023-04-09T23:02:38.234Z,101761.03
2023-04-09T23:05:07.004Z,101758.31
2023-04-09T23:07:36.448Z,101742.50
2023-04-09T23:10:04.342Z,101754.13
2023-04-09T23:12:32.320Z,101761.19
2023-04-09T23:15:00.504Z,101753.28
2023-04-09T23:17:28.432Z,101756.81
2023-04-09T23:19:56.835Z,101752.44
2023-04-09T23:22:26.276Z,101753.63
2023-04-09T23:24:56.641Z,101756.00
2023-04-09T23:27:28.656Z,101758.69
2023-04-09T23:29:57.093Z,101748.88
2023-04-09T23:32:25.208Z,101727.16
2023-04-09T23:34:53.472Z,101747.19
2023-04-09T23:37:21.408Z,101748.03
2023-04-09T23:39:49.333Z,101744.66
2023-04-09T23:42:18.769Z,101755.31
2023-04-09T23:44:46.943Z,101756.16
2023-04-09T23:47:14.926Z,101749.88
2023-04-09T23:49:43.451Z,101746.34
2023-04-09T23:52:11.342Z,101733.69
2023-04-09T23:54:39.541Z,101737.34
2023-04-09T23:57:07.435Z,101733.78
2023-04-09T23:59:37.246Z,101732.94
